Terminal Aerodrome Forecast
Issued by NWS Bismarck, ND

Home | Current Version | Previous Version | Graphics & Text | Print | Product List | Glossary On
Versions: 1 2 3 4 5 6 7 8 9 10 11 12 13 14 15 16 17 18 19 20 21 22 23 24 25
000
FTUS43 KBIS 242340
TAFISN
TAF
KISN 242340Z 2500/2524 24008KT P6SM SCT070 BKN080
     FM250700 01005KT P6SM VCTS BKN150CB
     FM251200 05005KT P6SM -SHRA SCT040 OVC080
     FM251800 03009KT P6SM -SHRA VCTS OVC015CB=

USA.gov is the U.S. government's official web portal to all federal, state and local government web resources and services.